sensor_id;sensor_type;location;lat;lon;timestamp;pressure;altitude;pressure_sealevel;temperature;humidity
79544;BME280;68994;47.176;7.534;2023-08-21T00:00:07;96537.06;;;21.64;75.43
79544;BME280;68994;47.176;7.534;2023-08-21T00:02:34;96539.16;;;21.67;76.02
79544;BME280;68994;47.176;7.534;2023-08-21T00:05:01;96530.00;;;21.63;75.76
79544;BME280;68994;47.176;7.534;2023-08-21T00:07:28;96541.03;;;21.58;76.32
79544;BME280;68994;47.176;7.534;2023-08-21T00:09:54;96536.09;;;21.60;75.97
79544;BME280;68994;47.176;7.534;2023-08-21T00:12:22;96533.56;;;21.64;75.00
79544;BME280;68994;47.176;7.534;2023-08-21T00:14:49;96531.63;;;21.64;75.63
79544;BME280;68994;47.176;7.534;2023-08-21T00:17:16;96535.50;;;21.72;74.25
79544;BME280;68994;47.176;7.534;2023-08-21T00:19:42;96528.75;;;21.70;75.51
79544;BME280;68994;47.176;7.534;2023-08-21T00:22:09;96526.19;;;21.64;75.29
79544;BME280;68994;47.176;7.534;2023-08-21T00:24:36;96533.25;;;21.65;75.39
79544;BME280;68994;47.176;7.534;2023-08-21T00:27:03;96531.78;;;21.59;75.71
79544;BME280;68994;47.176;7.534;2023-08-21T00:29:31;96530.16;;;21.49;75.84
79544;BME280;68994;47.176;7.534;2023-08-21T00:31:58;96532.97;;;21.44;75.43
79544;BME280;68994;47.176;7.534;2023-08-21T00:34:24;96530.56;;;21.43;75.97
79544;BME280;68994;47.176;7.534;2023-08-21T00:36:51;96524.97;;;21.39;76.22
79544;BME280;68994;47.176;7.534;2023-08-21T00:39:17;96526.91;;;21.39;76.01
79544;BME280;68994;47.176;7.534;2023-08-21T00:41:44;96534.38;;;21.33;76.42
79544;BME280;68994;47.176;7.534;2023-08-21T00:44:11;96528.28;;;21.27;76.77
79544;BME280;68994;47.176;7.534;2023-08-21T00:46:39;96531.31;;;21.26;77.06
79544;BME280;68994;47.176;7.534;2023-08-21T00:49:06;96527.81;;;21.25;76.67
79544;BME280;68994;47.176;7.534;2023-08-21T00:51:33;96534.47;;;21.19;76.61
79544;BME280;68994;47.176;7.534;2023-08-21T00:54:00;96531.91;;;21.14;77.27
79544;BME280;68994;47.176;7.534;2023-08-21T00:56:27;96525.00;;;21.08;77.08
79544;BME280;68994;47.176;7.534;2023-08-21T00:58:54;96521.81;;;21.06;76.92
79544;BME280;68994;47.176;7.534;2023-08-21T01:01:21;96526.13;;;21.07;77.10
79544;BME280;68994;47.176;7.534;2023-08-21T01:03:51;96522.94;;;21.05;77.30
79544;BME280;68994;47.176;7.534;2023-08-21T01:06:18;96535.50;;;21.01;76.80
79544;BME280;68994;47.176;7.534;2023-08-21T01:08:52;96527.50;;;20.96;77.34
79544;BME280;68994;47.176;7.534;2023-08-21T01:11:21;96532.16;;;20.95;76.86
79544;BME280;68994;47.176;7.534;2023-08-21T01:13:56;96532.81;;;21.01;77.46
79544;BME280;68994;47.176;7.534;2023-08-21T01:16:26;96537.56;;;20.95;77.21
79544;BME280;68994;47.176;7.534;2023-08-21T01:18:56;96536.88;;;20.89;77.35
79544;BME280;68994;47.176;7.534;2023-08-21T01:21:23;96543.91;;;20.90;77.33
79544;BME280;68994;47.176;7.534;2023-08-21T01:23:52;96541.22;;;20.90;77.26
79544;BME280;68994;47.176;7.534;2023-08-21T01:26:19;96551.56;;;20.88;77.64
79544;BME280;68994;47.176;7.534;2023-08-21T01:28:45;96553.78;;;20.86;77.82
79544;BME280;68994;47.176;7.534;2023-08-21T01:31:17;96556.50;;;20.86;77.77
79544;BME280;68994;47.176;7.534;2023-08-21T01:33:49;96552.50;;;20.84;77.37
79544;BME280;68994;47.176;7.534;2023-08-21T01:36:17;96550.72;;;20.79;77.29
79544;BME280;68994;47.176;7.534;2023-08-21T01:38:44;96553.72;;;20.78;77.71
79544;BME280;68994;47.176;7.534;2023-08-21T01:41:13;96559.16;;;20.78;77.98
79544;BME280;68994;47.176;7.534;2023-08-21T01:43:39;96557.34;;;20.73;77.94
79544;BME280;68994;47.176;7.534;2023-08-21T01:46:06;96558.63;;;20.67;77.96
79544;BME280;68994;47.176;7.534;2023-08-21T01:48:33;96549.56;;;20.57;78.46
79544;BME280;68994;47.176;7.534;2023-08-21T01:51:00;96557.63;;;20.63;77.62
79544;BME280;68994;47.176;7.534;2023-08-21T01:53:27;96558.53;;;20.58;78.43
79544;BME280;68994;47.176;7.534;2023-08-21T01:55:54;96546.19;;;20.52;78.56
79544;BME280;68994;47.176;7.534;2023-08-21T01:58:22;96555.63;;;20.54;78.10
79544;BME280;68994;47.176;7.534;2023-08-21T02:00:49;96554.16;;;20.48;78.13
79544;BME280;68994;47.176;7.534;2023-08-21T02:03:15;96559.56;;;20.48;78.63
79544;BME280;68994;47.176;7.534;2023-08-21T02:05:42;96557.16;;;20.47;78.59
79544;BME280;68994;47.176;7.534;2023-08-21T02:08:13;96563.69;;;20.46;78.53
79544;BME280;68994;47.176;7.534;2023-08-21T02:10:48;96565.59;;;20.45;78.37
79544;BME280;68994;47.176;7.534;2023-08-21T02:13:15;96566.69;;;20.44;78.96
79544;BME280;68994;47.176;7.534;2023-08-21T02:15:43;96559.31;;;20.36;78.94
79544;BME280;68994;47.176;7.534;2023-08-21T02:18:10;96556.72;;;20.31;79.16
79544;BME280;68994;47.176;7.534;2023-08-21T02:20:36;96557.34;;;20.28;79.12
79544;BME280;68994;47.176;7.534;2023-08-21T02:23:04;96559.25;;;20.27;78.86
79544;BME280;68994;47.176;7.534;2023-08-21T02:25:31;96554.13;;;20.26;78.75
79544;BME280;68994;47.176;7.534;2023-08-21T02:27:57;96549.53;;;20.26;78.71
79544;BME280;68994;47.176;7.534;2023-08-21T02:30:24;96552.13;;;20.31;78.72
79544;BME280;68994;47.176;7.534;2023-08-21T02:32:52;96554.13;;;20.26;78.62
79544;BME280;68994;47.176;7.534;2023-08-21T02:35:19;96551.72;;;20.24;78.67
79544;BME280;68994;47.176;7.534;2023-08-21T02:37:46;96549.81;;;20.25;78.56
79544;BME280;68994;47.176;7.534;2023-08-21T02:40:13;96558.44;;;20.27;78.41
79544;BME280;68994;47.176;7.534;2023-08-21T02:42:40;96559.34;;;20.22;78.78
79544;BME280;68994;47.176;7.534;2023-08-21T02:45:08;96555.38;;;20.19;78.37
79544;BME280;68994;47.176;7.534;2023-08-21T02:47:35;96559.66;;;20.20;78.80
79544;BME280;68994;47.176;7.534;2023-08-21T02:50:04;96559.53;;;20.26;77.89
79544;BME280;68994;47.176;7.534;2023-08-21T02:52:32;96558.75;;;20.25;78.12
79544;BME280;68994;47.176;7.534;2023-08-21T02:54:59;96556.72;;;20.31;77.66
79544;BME280;68994;47.176;7.534;2023-08-21T02:57:26;96565.03;;;20.34;77.79
79544;BME280;68994;47.176;7.534;2023-08-21T02:59:53;96555.72;;;20.27;77.90
79544;BME280;68994;47.176;7.534;2023-08-21T03:02:20;96562.78;;;20.28;78.05
79544;BME280;68994;47.176;7.534;2023-08-21T03:04:47;96561.94;;;20.27;78.39
79544;BME280;68994;47.176;7.534;2023-08-21T03:07:15;96553.44;;;20.20;78.41
79544;BME280;68994;47.176;7.534;2023-08-21T03:09:44;96560.06;;;20.14;79.01
79544;BME280;68994;47.176;7.534;2023-08-21T03:12:11;96551.34;;;20.17;78.00
79544;BME280;68994;47.176;7.534;2023-08-21T03:14:38;96557.06;;;20.15;77.99
79544;BME280;68994;47.176;7.534;2023-08-21T03:17:04;96548.75;;;20.12;78.73
79544;BME280;68994;47.176;7.534;2023-08-21T03:19:31;96546.66;;;20.09;78.72
79544;BME280;68994;47.176;7.534;2023-08-21T03:21:58;96556.38;;;20.10;78.63
79544;BME280;68994;47.176;7.534;2023-08-21T03:24:26;96561.00;;;20.09;79.87
79544;BME280;68994;47.176;7.534;2023-08-21T03:26:52;96559.22;;;20.05;79.23
79544;BME280;68994;47.176;7.534;2023-08-21T03:29:19;96557.91;;;20.02;78.66
79544;BME280;68994;47.176;7.534;2023-08-21T03:31:49;96556.63;;;19.99;78.99
79544;BME280;68994;47.176;7.534;2023-08-21T03:34:16;96555.41;;;19.92;79.05
79544;BME280;68994;47.176;7.534;2023-08-21T03:36:43;96553.63;;;19.87;79.75
79544;BME280;68994;47.176;7.534;2023-08-21T03:39:10;96555.84;;;19.85;79.89
79544;BME280;68994;47.176;7.534;2023-08-21T03:41:38;96556.84;;;19.75;79.90
79544;BME280;68994;47.176;7.534;2023-08-21T03:44:05;96548.19;;;19.73;79.98
79544;BME280;68994;47.176;7.534;2023-08-21T03:46:32;96544.59;;;19.64;80.11
79544;BME280;68994;47.176;7.534;2023-08-21T03:48:58;96552.09;;;19.67;80.24
79544;BME280;68994;47.176;7.534;2023-08-21T03:51:25;96563.63;;;19.59;80.56
79544;BME280;68994;47.176;7.534;2023-08-21T03:53:52;96562.66;;;19.55;80.91
79544;BME280;68994;47.176;7.534;2023-08-21T03:56:18;96560.06;;;19.50;80.67
79544;BME280;68994;47.176;7.534;2023-08-21T03:58:46;96572.50;;;19.51;80.55
79544;BME280;68994;47.176;7.534;2023-08-21T04:01:13;96561.84;;;19.40;80.96
79544;BME280;68994;47.176;7.534;2023-08-21T04:03:40;96576.88;;;19.46;81.02
79544;BME280;68994;47.176;7.534;2023-08-21T04:06:07;96577.47;;;19.43;80.72
79544;BME280;68994;47.176;7.534;2023-08-21T04:08:34;96586.72;;;19.42;80.93
79544;BME280;68994;47.176;7.534;2023-08-21T04:11:01;96586.50;;;19.39;81.02
79544;BME280;68994;47.176;7.534;2023-08-21T04:13:28;96585.19;;;19.36;81.63
79544;BME280;68994;47.176;7.534;2023-08-21T04:15:56;96587.91;;;19.36;81.66
79544;BME280;68994;47.176;7.534;2023-08-21T04:18:23;96571.78;;;19.31;81.95
79544;BME280;68994;47.176;7.534;2023-08-21T04:20:50;96585.31;;;19.31;81.29
79544;BME280;68994;47.176;7.534;2023-08-21T04:23:17;96595.44;;;19.39;80.90
79544;BME280;68994;47.176;7.534;2023-08-21T04:25:44;96586.41;;;19.30;81.18
79544;BME280;68994;47.176;7.534;2023-08-21T04:28:11;96592.53;;;19.36;81.38
79544;BME280;68994;47.176;7.534;2023-08-21T04:30:39;96595.53;;;19.34;81.55
79544;BME280;68994;47.176;7.534;2023-08-21T04:33:07;96575.88;;;19.28;81.50
79544;BME280;68994;47.176;7.534;2023-08-21T04:35:37;96579.88;;;19.31;81.21
79544;BME280;68994;47.176;7.534;2023-08-21T04:38:04;96600.34;;;19.37;81.09
79544;BME280;68994;47.176;7.534;2023-08-21T04:40:30;96599.22;;;19.38;80.88
79544;BME280;68994;47.176;7.534;2023-08-21T04:42:57;96598.44;;;19.38;81.17
79544;BME280;68994;47.176;7.534;2023-08-21T04:45:24;96599.22;;;19.38;80.93
79544;BME280;68994;47.176;7.534;2023-08-21T04:47:50;96599.22;;;19.38;81.11
79544;BME280;68994;47.176;7.534;2023-08-21T04:50:19;96602.72;;;19.39;80.70
79544;BME280;68994;47.176;7.534;2023-08-21T04:52:45;96602.72;;;19.39;81.12
79544;BME280;68994;47.176;7.534;2023-08-21T04:55:14;96608.47;;;19.37;81.28
79544;BME280;68994;47.176;7.534;2023-08-21T04:57:41;96607.34;;;19.38;81.48
79544;BME280;68994;47.176;7.534;2023-08-21T05:00:09;96610.84;;;19.39;81.48
79544;BME280;68994;47.176;7.534;2023-08-21T05:02:36;96610.34;;;19.37;81.42
79544;BME280;68994;47.176;7.534;2023-08-21T05:05:03;96614.38;;;19.39;81.86
79544;BME280;68994;47.176;7.534;2023-08-21T05:07:31;96618.56;;;19.45;81.29
79544;BME280;68994;47.176;7.534;2023-08-21T05:09:59;96622.59;;;19.62;79.48
79544;BME280;68994;47.176;7.534;2023-08-21T05:12:25;96620.38;;;19.64;79.48
79544;BME280;68994;47.176;7.534;2023-08-21T05:14:53;96622.31;;;19.77;78.22
79544;BME280;68994;47.176;7.534;2023-08-21T05:17:19;96624.63;;;19.84;78.53
79544;BME280;68994;47.176;7.534;2023-08-21T05:19:46;96623.53;;;19.85;79.25
79544;BME280;68994;47.176;7.534;2023-08-21T05:22:13;96624.44;;;19.80;79.54
79544;BME280;68994;47.176;7.534;2023-08-21T05:24:41;96618.53;;;19.78;79.44
79544;BME280;68994;47.176;7.534;2023-08-21T05:27:08;96627.03;;;19.86;79.13
79544;BME280;68994;47.176;7.534;2023-08-21T05:29:34;96625.25;;;19.95;78.57
79544;BME280;68994;47.176;7.534;2023-08-21T05:32:01;96623.03;;;19.97;78.20
79544;BME280;68994;47.176;7.534;2023-08-21T05:34:28;96622.81;;;20.07;76.67
79544;BME280;68994;47.176;7.534;2023-08-21T05:36:54;96634.81;;;20.29;75.83
79544;BME280;68994;47.176;7.534;2023-08-21T05:39:21;96634.88;;;20.37;75.60
79544;BME280;68994;47.176;7.534;2023-08-21T05:41:49;96635.72;;;20.38;75.72
79544;BME280;68994;47.176;7.534;2023-08-21T05:44:16;96637.59;;;20.37;76.08
79544;BME280;68994;47.176;7.534;2023-08-21T05:46:43;96645.31;;;20.44;75.41
79544;BME280;68994;47.176;7.534;2023-08-21T05:49:09;96638.97;;;20.49;75.45
79544;BME280;68994;47.176;7.534;2023-08-21T05:51:36;96642.59;;;20.58;74.76
79544;BME280;68994;47.176;7.534;2023-08-21T05:54:03;96640.66;;;20.58;74.91
79544;BME280;68994;47.176;7.534;2023-08-21T05:56:29;96642.38;;;20.68;74.63
79544;BME280;68994;47.176;7.534;2023-08-21T05:58:57;96651.19;;;20.74;74.19
79544;BME280;68994;47.176;7.534;2023-08-21T06:01:24;96645.50;;;20.84;74.07
79544;BME280;68994;47.176;7.534;2023-08-21T06:03:51;96650.56;;;20.77;74.62
79544;BME280;68994;47.176;7.534;2023-08-21T06:06:17;96644.97;;;20.73;74.66
79544;BME280;68994;47.176;7.534;2023-08-21T06:08:44;96658.94;;;20.89;74.50
79544;BME280;68994;47.176;7.534;2023-08-21T06:11:11;96659.06;;;20.84;75.59
79544;BME280;68994;47.176;7.534;2023-08-21T06:13:37;96661.47;;;20.86;75.22
79544;BME280;68994;47.176;7.534;2023-08-21T06:16:05;96659.47;;;20.91;75.01
79544;BME280;68994;47.176;7.534;2023-08-21T06:18:32;96670.69;;;20.99;74.79
79544;BME280;68994;47.176;7.534;2023-08-21T06:20:59;96665.13;;;21.04;74.92
79544;BME280;68994;47.176;7.534;2023-08-21T06:23:25;96666.22;;;21.03;74.66
79544;BME280;68994;47.176;7.534;2023-08-21T06:25:52;96666.22;;;21.03;74.63
79544;BME280;68994;47.176;7.534;2023-08-21T06:28:19;96674.56;;;21.06;75.93
79544;BME280;68994;47.176;7.534;2023-08-21T06:30:45;96669.34;;;21.10;75.46
79544;BME280;68994;47.176;7.534;2023-08-21T06:33:13;96668.06;;;21.16;75.13
79544;BME280;68994;47.176;7.534;2023-08-21T06:35:40;96659.81;;;21.21;74.39
79544;BME280;68994;47.176;7.534;2023-08-21T06:38:07;96669.44;;;21.27;74.45
79544;BME280;68994;47.176;7.534;2023-08-21T06:40:33;96660.38;;;21.32;74.54
79544;BME280;68994;47.176;7.534;2023-08-21T06:43:00;96660.09;;;21.42;73.50
79544;BME280;68994;47.176;7.534;2023-08-21T06:45:27;96661.91;;;21.47;73.45
79544;BME280;68994;47.176;7.534;2023-08-21T06:47:56;96670.28;;;21.59;72.95
79544;BME280;68994;47.176;7.534;2023-08-21T06:50:24;96674.16;;;21.67;72.71
79544;BME280;68994;47.176;7.534;2023-08-21T06:52:50;96666.97;;;21.71;72.82
79544;BME280;68994;47.176;7.534;2023-08-21T06:55:17;96664.91;;;21.77;73.21
79544;BME280;68994;47.176;7.534;2023-08-21T06:57:44;96676.44;;;21.82;73.07
79544;BME280;68994;47.176;7.534;2023-08-21T07:00:11;96676.47;;;21.91;72.55
79544;BME280;68994;47.176;7.534;2023-08-21T07:02:38;96668.66;;;21.98;71.50
79544;BME280;68994;47.176;7.534;2023-08-21T07:05:05;96669.03;;;22.05;72.09
79544;BME280;68994;47.176;7.534;2023-08-21T07:07:33;96670.63;;;22.15;71.68
79544;BME280;68994;47.176;7.534;2023-08-21T07:10:00;96669.06;;;22.23;71.70
79544;BME280;68994;47.176;7.534;2023-08-21T07:12:28;96669.41;;;22.30;71.56
79544;BME280;68994;47.176;7.534;2023-08-21T07:14:55;96672.97;;;22.39;71.35
79544;BME280;68994;47.176;7.534;2023-08-21T07:17:21;96671.03;;;22.49;70.47
79544;BME280;68994;47.176;7.534;2023-08-21T07:19:48;96663.72;;;22.58;70.05
79544;BME280;68994;47.176;7.534;2023-08-21T07:22:17;96669.94;;;22.67;70.74
79544;BME280;68994;47.176;7.534;2023-08-21T07:24:45;96670.13;;;22.71;70.15
79544;BME280;68994;47.176;7.534;2023-08-21T07:27:12;96668.03;;;22.76;68.87
79544;BME280;68994;47.176;7.534;2023-08-21T07:29:39;96662.91;;;22.84;69.35
79544;BME280;68994;47.176;7.534;2023-08-21T07:32:05;96664.03;;;22.91;69.17
79544;BME280;68994;47.176;7.534;2023-08-21T07:34:32;96669.94;;;23.02;68.01
79544;BME280;68994;47.176;7.534;2023-08-21T07:36:59;96664.84;;;23.09;67.89
79544;BME280;68994;47.176;7.534;2023-08-21T07:39:26;96670.59;;;23.17;68.53
79544;BME280;68994;47.176;7.534;2023-08-21T07:41:54;96669.31;;;23.23;66.13
79544;BME280;68994;47.176;7.534;2023-08-21T07:44:20;96667.38;;;23.32;65.64
79544;BME280;68994;47.176;7.534;2023-08-21T07:46:47;96666.38;;;23.45;64.07
79544;BME280;68994;47.176;7.534;2023-08-21T07:49:13;96669.06;;;23.54;66.90
79544;BME280;68994;47.176;7.534;2023-08-21T07:51:40;96665.19;;;23.64;67.20
79544;BME280;68994;47.176;7.534;2023-08-21T07:54:07;96673.66;;;23.71;64.52
79544;BME280;68994;47.176;7.534;2023-08-21T07:56:34;96673.81;;;23.75;65.11
79544;BME280;68994;47.176;7.534;2023-08-21T07:59:02;96674.28;;;23.85;64.42
79544;BME280;68994;47.176;7.534;2023-08-21T08:01:29;96675.22;;;23.89;62.92
79544;BME280;68994;47.176;7.534;2023-08-21T08:03:58;96675.03;;;23.95;64.06
79544;BME280;68994;47.176;7.534;2023-08-21T08:06:24;96674.69;;;24.05;64.58
79544;BME280;68994;47.176;7.534;2023-08-21T08:08:51;96668.19;;;24.18;65.36
79544;BME280;68994;47.176;7.534;2023-08-21T08:11:18;96674.19;;;24.33;64.44
79544;BME280;68994;47.176;7.534;2023-08-21T08:13:45;96674.97;;;24.42;63.98
79544;BME280;68994;47.176;7.534;2023-08-21T08:16:12;96677.28;;;24.52;63.07
79544;BME280;68994;47.176;7.534;2023-08-21T08:18:39;96667.78;;;24.58;63.49
79544;BME280;68994;47.176;7.534;2023-08-21T08:21:06;96676.59;;;24.64;62.33
79544;BME280;68994;47.176;7.534;2023-08-21T08:23:33;96676.06;;;24.71;63.35
79544;BME280;68994;47.176;7.534;2023-08-21T08:25:59;96669.13;;;24.73;64.15
79544;BME280;68994;47.176;7.534;2023-08-21T08:28:26;96665.28;;;24.95;64.39
79544;BME280;68994;47.176;7.534;2023-08-21T08:30:53;96660.56;;;25.17;65.10
79544;BME280;68994;47.176;7.534;2023-08-21T08:33:21;96665.47;;;25.45;60.82
79544;BME280;68994;47.176;7.534;2023-08-21T08:35:48;96658.31;;;25.65;61.59
79544;BME280;68994;47.176;7.534;2023-08-21T08:38:14;96660.56;;;25.96;60.28
79544;BME280;68994;47.176;7.534;2023-08-21T08:40:44;96660.66;;;26.24;60.78
79544;BME280;68994;47.176;7.534;2023-08-21T08:43:12;96659.13;;;26.64;58.60
79544;BME280;68994;47.176;7.534;2023-08-21T08:45:39;96659.69;;;26.98;57.57
79544;BME280;68994;47.176;7.534;2023-08-21T08:48:07;96659.19;;;27.08;57.04
79544;BME280;68994;47.176;7.534;2023-08-21T08:50:37;96659.69;;;27.26;56.09
79544;BME280;68994;47.176;7.534;2023-08-21T08:53:06;96660.53;;;27.27;56.10
79544;BME280;68994;47.176;7.534;2023-08-21T08:55:33;96648.75;;;27.26;54.17
79544;BME280;68994;47.176;7.534;2023-08-21T08:58:00;96648.16;;;27.33;57.40
79544;BME280;68994;47.176;7.534;2023-08-21T09:00:26;96644.91;;;27.43;53.14
79544;BME280;68994;47.176;7.534;2023-08-21T09:02:54;96650.78;;;27.57;55.05
79544;BME280;68994;47.176;7.534;2023-08-21T09:05:22;96637.88;;;27.74;54.21
79544;BME280;68994;47.176;7.534;2023-08-21T09:08:02;96652.25;;;27.87;58.63
79544;BME280;68994;47.176;7.534;2023-08-21T09:10:29;96647.09;;;27.98;55.14
79544;BME280;68994;47.176;7.534;2023-08-21T09:12:56;96646.00;;;28.18;56.25
79544;BME280;68994;47.176;7.534;2023-08-21T09:15:27;96640.38;;;28.30;53.96
79544;BME280;68994;47.176;7.534;2023-08-21T09:17:55;96640.34;;;28.46;56.20
79544;BME280;68994;47.176;7.534;2023-08-21T09:20:22;96634.13;;;28.65;54.45
79544;BME280;68994;47.176;7.534;2023-08-21T09:22:53;96636.38;;;28.79;51.72
79544;BME280;68994;47.176;7.534;2023-08-21T09:25:23;96632.16;;;29.05;52.95
79544;BME280;68994;47.176;7.534;2023-08-21T09:27:51;96631.66;;;29.62;52.79
79544;BME280;68994;47.176;7.534;2023-08-21T09:30:18;96635.69;;;30.71;49.54
79544;BME280;68994;47.176;7.534;2023-08-21T09:32:53;96625.22;;;32.59;45.23
79544;BME280;68994;47.176;7.534;2023-08-21T09:35:20;96621.25;;;34.38;38.74
79544;BME280;68994;47.176;7.534;2023-08-21T09:37:47;96619.06;;;36.22;36.94
79544;BME280;68994;47.176;7.534;2023-08-21T09:40:15;96613.47;;;37.29;32.99
79544;BME280;68994;47.176;7.534;2023-08-21T09:42:43;96618.09;;;38.38;31.32
79544;BME280;68994;47.176;7.534;2023-08-21T09:45:10;96616.59;;;38.97;30.39
79544;BME280;68994;47.176;7.534;2023-08-21T09:47:37;96611.47;;;39.32;30.09
79544;BME280;68994;47.176;7.534;2023-08-21T09:50:05;96614.03;;;39.92;29.11
79544;BME280;68994;47.176;7.534;2023-08-21T09:52:32;96599.94;;;40.45;28.73
79544;BME280;68994;47.176;7.534;2023-08-21T09:55:00;96609.06;;;40.91;28.84
79544;BME280;68994;47.176;7.534;2023-08-21T09:57:29;96600.72;;;41.56;28.13
79544;BME280;68994;47.176;7.534;2023-08-21T09:59:59;96601.38;;;41.60;25.70
79544;BME280;68994;47.176;7.534;2023-08-21T10:02:26;96596.56;;;41.86;25.46
79544;BME280;68994;47.176;7.534;2023-08-21T10:04:53;96595.66;;;41.89;26.87
79544;BME280;68994;47.176;7.534;2023-08-21T10:07:21;96592.88;;;42.24;24.78
79544;BME280;68994;47.176;7.534;2023-08-21T10:09:51;96591.63;;;42.25;24.14
79544;BME280;68994;47.176;7.534;2023-08-21T10:12:18;96588.56;;;42.10;24.21
79544;BME280;68994;47.176;7.534;2023-08-21T10:14:47;96576.31;;;42.74;26.20
79544;BME280;68994;47.176;7.534;2023-08-21T10:17:15;96582.28;;;42.85;24.68
79544;BME280;68994;47.176;7.534;2023-08-21T10:19:50;96577.28;;;42.58;23.38
79544;BME280;68994;47.176;7.534;2023-08-21T10:22:36;96576.19;;;43.09;24.14
79544;BME280;68994;47.176;7.534;2023-08-21T10:25:04;96576.56;;;43.20;22.46
79544;BME280;68994;47.176;7.534;2023-08-21T10:27:40;96577.13;;;43.37;23.44
79544;BME280;68994;47.176;7.534;2023-08-21T10:30:12;96576.34;;;43.46;23.68
79544;BME280;68994;47.176;7.534;2023-08-21T10:32:45;96573.78;;;43.29;25.21
79544;BME280;68994;47.176;7.534;2023-08-21T10:35:14;96574.50;;;43.11;23.83
79544;BME280;68994;47.176;7.534;2023-08-21T10:38:05;96571.19;;;43.35;24.32
79544;BME280;68994;47.176;7.534;2023-08-21T10:40:32;96568.72;;;44.15;23.22
79544;BME280;68994;47.176;7.534;2023-08-21T10:42:59;96566.50;;;44.09;22.54
79544;BME280;68994;47.176;7.534;2023-08-21T10:45:26;96561.63;;;43.73;23.36
79544;BME280;68994;47.176;7.534;2023-08-21T10:47:56;96558.84;;;43.91;22.80
79544;BME280;68994;47.176;7.534;2023-08-21T10:50:23;96559.63;;;43.92;22.88
79544;BME280;68994;47.176;7.534;2023-08-21T10:52:51;96559.53;;;44.23;23.12
79544;BME280;68994;47.176;7.534;2023-08-21T10:55:19;96553.88;;;44.05;21.43
79544;BME280;68994;47.176;7.534;2023-08-21T10:57:46;96558.09;;;44.46;21.27
79544;BME280;68994;47.176;7.534;2023-08-21T11:00:15;96546.94;;;44.80;20.23
79544;BME280;68994;47.176;7.534;2023-08-21T11:02:44;96548.09;;;44.73;21.39
79544;BME280;68994;47.176;7.534;2023-08-21T11:05:14;96544.81;;;44.47;21.42
79544;BME280;68994;47.176;7.534;2023-08-21T11:07:42;96543.72;;;44.35;20.26
79544;BME280;68994;47.176;7.534;2023-08-21T11:10:12;96542.16;;;44.34;22.64
79544;BME280;68994;47.176;7.534;2023-08-21T11:12:48;96550.22;;;44.88;21.25
79544;BME280;68994;47.176;7.534;2023-08-21T11:15:16;96541.72;;;45.15;21.48
79544;BME280;68994;47.176;7.534;2023-08-21T11:17:50;96535.75;;;45.13;21.87
79544;BME280;68994;47.176;7.534;2023-08-21T11:20:19;96539.88;;;44.94;22.94
79544;BME280;68994;47.176;7.534;2023-08-21T11:22:46;96534.00;;;44.73;20.23
79544;BME280;68994;47.176;7.534;2023-08-21T11:25:14;96536.53;;;44.34;21.97
79544;BME280;68994;47.176;7.534;2023-08-21T11:27:41;96530.44;;;44.45;21.49
79544;BME280;68994;47.176;7.534;2023-08-21T11:30:11;96528.31;;;44.92;21.57
79544;BME280;68994;47.176;7.534;2023-08-21T11:32:38;96528.94;;;44.96;21.52
79544;BME280;68994;47.176;7.534;2023-08-21T11:35:05;96524.19;;;45.11;21.66
79544;BME280;68994;47.176;7.534;2023-08-21T11:37:33;96528.63;;;44.85;21.27
79544;BME280;68994;47.176;7.534;2023-08-21T11:40:07;96532.19;;;45.46;20.97
79544;BME280;68994;47.176;7.534;2023-08-21T11:42:35;96520.97;;;45.28;21.13
79544;BME280;68994;47.176;7.534;2023-08-21T11:45:02;96508.94;;;45.61;21.12
79544;BME280;68994;47.176;7.534;2023-08-21T11:47:33;96516.75;;;45.32;21.86
79544;BME280;68994;47.176;7.534;2023-08-21T11:50:07;96511.72;;;44.94;23.37
79544;BME280;68994;47.176;7.534;2023-08-21T11:52:37;96508.06;;;45.12;21.48
79544;BME280;68994;47.176;7.534;2023-08-21T11:55:07;96503.25;;;44.42;22.13
79544;BME280;68994;47.176;7.534;2023-08-21T11:57:34;96502.47;;;44.60;22.69
79544;BME280;68994;47.176;7.534;2023-08-21T12:00:01;96499.91;;;44.71;21.54
79544;BME280;68994;47.176;7.534;2023-08-21T12:02:31;96501.09;;;44.89;22.62
79544;BME280;68994;47.176;7.534;2023-08-21T12:05:03;96492.22;;;45.24;21.04
79544;BME280;68994;47.176;7.534;2023-08-21T12:07:31;96489.06;;;44.97;20.51
79544;BME280;68994;47.176;7.534;2023-08-21T12:09:59;96479.63;;;45.34;21.04
79544;BME280;68994;47.176;7.534;2023-08-21T12:12:26;96484.47;;;44.48;19.85
79544;BME280;68994;47.176;7.534;2023-08-21T12:14:53;96491.63;;;44.68;19.39
79544;BME280;68994;47.176;7.534;2023-08-21T12:17:20;96478.09;;;44.38;21.00
79544;BME280;68994;47.176;7.534;2023-08-21T12:19:46;96483.34;;;44.55;21.37
79544;BME280;68994;47.176;7.534;2023-08-21T12:22:13;96475.44;;;44.25;21.07
79544;BME280;68994;47.176;7.534;2023-08-21T12:24:40;96482.47;;;44.21;19.66
79544;BME280;68994;47.176;7.534;2023-08-21T12:27:08;96480.56;;;43.71;20.81
79544;BME280;68994;47.176;7.534;2023-08-21T12:29:35;96473.97;;;43.47;18.69
79544;BME280;68994;47.176;7.534;2023-08-21T12:32:01;96466.81;;;43.55;21.28
79544;BME280;68994;47.176;7.534;2023-08-21T12:34:29;96471.50;;;43.40;17.68
79544;BME280;68994;47.176;7.534;2023-08-21T12:36:55;96472.50;;;42.83;18.17
79544;BME280;68994;47.176;7.534;2023-08-21T12:39:22;96477.44;;;43.51;20.46
79544;BME280;68994;47.176;7.534;2023-08-21T12:41:49;96463.22;;;43.64;19.91
79544;BME280;68994;47.176;7.534;2023-08-21T12:44:17;96463.69;;;43.53;19.29
79544;BME280;68994;47.176;7.534;2023-08-21T12:46:44;96457.91;;;43.38;20.88
79544;BME280;68994;47.176;7.534;2023-08-21T12:49:11;96464.16;;;43.51;22.46
79544;BME280;68994;47.176;7.534;2023-08-21T12:51:38;96462.59;;;43.69;21.79
79544;BME280;68994;47.176;7.534;2023-08-21T12:54:05;96456.72;;;43.76;21.23
79544;BME280;68994;47.176;7.534;2023-08-21T12:56:32;96460.56;;;43.42;20.79
79544;BME280;68994;47.176;7.534;2023-08-21T12:58:58;96456.75;;;43.26;19.80
79544;BME280;68994;47.176;7.534;2023-08-21T13:01:27;96456.66;;;43.48;21.48